Time;durP1;ratioP1;P1;durP2;ratioP2;P2;SDS_P1;SDS_P2;PMS_P1;PMS_P2;Temp;Humidity;BMP_temperature;BMP_pressure;BME280_temperature;BME280_humidity;BME280_pressure;Samples;Min_cycle;Max_cycle;Signal;HPM_P1;HPM_P2
2024/04/10 00:00:49;;;;;;;9.50;1.83;;;9.20;99.90;;;;;;5382235;26;20007;-55
2024/04/10 00:03:16;;;;;;;10.57;3.10;;;9.20;99.90;;;;;;5382022;26;20000;-55
2024/04/10 00:05:57;;;;;;;14.77;2.03;;;9.20;99.90;;;;;;5382001;26;19997;-58
2024/04/10 00:08:23;;;;;;;13.13;1.80;;;9.20;99.90;;;;;;5381746;26;20000;-55
2024/04/10 00:10:51;;;;;;;9.93;1.52;;;9.10;99.90;;;;;;5381965;26;20015;-52
2024/04/10 00:13:16;;;;;;;24.98;2.67;;;9.10;99.90;;;;;;5381852;26;20374;-57
2024/04/10 00:15:42;;;;;;;22.58;2.85;;;9.10;99.90;;;;;;5381963;26;20000;-54
2024/04/10 00:18:08;;;;;;;8.88;1.60;;;9.10;99.90;;;;;;5381773;26;20450;-55
2024/04/10 00:20:33;;;;;;;9.10;1.95;;;9.10;99.90;;;;;;5381365;26;20335;-58
2024/04/10 00:23:01;;;;;;;12.00;2.05;;;9.10;99.90;;;;;;5381493;26;20007;-57
2024/04/10 00:25:27;;;;;;;6.18;2.13;;;9.10;99.90;;;;;;5381435;26;20012;-57
2024/04/10 00:27:52;;;;;;;13.00;1.65;;;9.10;99.90;;;;;;5381311;26;19996;-57
2024/04/10 00:30:18;;;;;;;11.45;2.22;;;9.00;99.90;;;;;;5379780;26;20000;-58
2024/04/10 00:32:47;;;;;;;8.95;1.70;;;9.00;99.90;;;;;;5381251;26;20376;-57
2024/04/10 00:35:12;;;;;;;8.65;2.85;;;9.00;99.90;;;;;;5381398;26;20080;-54
2024/04/10 00:37:38;;;;;;;11.07;2.03;;;9.00;99.90;;;;;;5381124;26;20008;-58
2024/04/10 00:40:04;;;;;;;6.00;1.70;;;9.00;99.90;;;;;;5380878;26;20019;-58
2024/04/10 00:42:30;;;;;;;9.10;2.13;;;9.00;99.90;;;;;;5381295;26;20446;-57
2024/04/10 00:44:55;;;;;;;9.80;1.63;;;9.00;99.90;;;;;;5381194;26;20006;-54
2024/04/10 00:47:23;;;;;;;10.60;1.45;;;9.00;99.90;;;;;;5381179;26;20037;-57
2024/04/10 00:49:49;;;;;;;11.70;2.10;;;9.00;99.90;;;;;;5380906;26;19997;-57
2024/04/10 00:52:15;;;;;;;11.13;2.95;;;8.90;99.90;;;;;;5381048;26;20044;-58
2024/04/10 00:54:43;;;;;;;11.35;1.95;;;8.90;99.90;;;;;;5379400;26;20000;-57
2024/04/10 00:57:09;;;;;;;9.82;2.10;;;8.90;99.90;;;;;;5380692;26;20012;-56
2024/04/10 00:59:35;;;;;;;15.82;1.80;;;9.00;99.90;;;;;;5380888;26;20324;-55
2024/04/10 01:02:03;;;;;;;11.48;2.72;;;8.90;99.90;;;;;;5380564;26;20027;-56
2024/04/10 01:04:29;;;;;;;26.58;3.47;;;9.00;99.90;;;;;;5380935;26;20417;-53
2024/04/10 01:06:55;;;;;;;12.55;2.30;;;8.90;99.90;;;;;;5380590;26;20000;-54
2024/04/10 01:09:20;;;;;;;17.25;2.38;;;9.00;99.90;;;;;;5380551;26;20007;-54
2024/04/10 01:11:46;;;;;;;13.55;1.73;;;8.90;99.90;;;;;;5380988;26;20628;-55
2024/04/10 01:14:12;;;;;;;15.60;1.98;;;8.90;99.90;;;;;;5380701;26;20015;-57
2024/04/10 01:16:37;;;;;;;13.23;1.85;;;8.90;99.90;;;;;;5380637;26;20007;-54
2024/04/10 01:19:03;;;;;;;13.10;1.88;;;8.90;99.90;;;;;;5380529;26;20447;-57
2024/04/10 01:21:29;;;;;;;19.70;2.45;;;8.90;99.90;;;;;;5380522;26;20008;-58
2024/04/10 01:23:54;;;;;;;13.95;2.22;;;8.90;99.90;;;;;;5380453;26;20085;-55
2024/04/10 01:26:20;;;;;;;10.15;2.83;;;8.90;99.90;;;;;;5380658;26;20442;-56
2024/04/10 01:28:47;;;;;;;15.57;1.75;;;8.90;99.90;;;;;;5380573;26;20572;-56
2024/04/10 01:31:12;;;;;;;23.17;2.53;;;8.90;99.90;;;;;;5380603;26;20413;-55
2024/04/10 01:33:38;;;;;;;9.07;1.42;;;8.90;99.90;;;;;;5380712;26;20043;-56
2024/04/10 01:36:04;;;;;;;13.00;2.35;;;8.90;99.90;;;;;;5380346;26;20095;-55
2024/04/10 01:38:30;;;;;;;13.27;2.03;;;8.90;99.90;;;;;;5380314;26;20077;-56
2024/04/10 01:40:56;;;;;;;11.63;1.65;;;8.90;99.90;;;;;;5379991;26;19996;-53
2024/04/10 01:43:21;;;;;;;18.38;1.83;;;8.90;99.90;;;;;;5380446;26;20644;-54
2024/04/10 01:45:47;;;;;;;13.20;2.40;;;8.90;99.90;;;;;;5380490;26;20001;-55
2024/04/10 01:48:12;;;;;;;9.80;2.55;;;8.90;99.90;;;;;;5379990;26;20083;-56
2024/04/10 01:50:38;;;;;;;16.77;2.55;;;8.80;99.90;;;;;;5379767;26;20005;-55
2024/04/10 01:53:04;;;;;;;9.82;1.77;;;8.90;99.90;;;;;;5379987;26;20050;-53
2024/04/10 01:55:29;;;;;;;15.90;3.05;;;8.80;99.90;;;;;;5380260;26;20066;-55
2024/04/10 01:57:55;;;;;;;10.93;1.63;;;8.80;99.90;;;;;;5380414;26;20350;-57
2024/04/10 02:00:22;;;;;;;11.88;2.50;;;8.80;99.90;;;;;;5378251;26;20000;-53
2024/04/10 02:02:48;;;;;;;14.85;3.10;;;8.80;99.90;;;;;;5380635;26;20004;-60
2024/04/10 02:05:14;;;;;;;15.50;1.88;;;8.70;99.90;;;;;;5372515;26;20444;-60
2024/04/10 02:07:40;;;;;;;17.73;1.88;;;8.70;99.90;;;;;;5367083;26;20004;-60
2024/04/10 02:10:06;;;;;;;17.50;2.22;;;8.70;99.90;;;;;;5371174;26;19992;-59
2024/04/10 02:12:32;;;;;;;12.10;2.08;;;8.60;99.90;;;;;;5379396;26;20000;-59
2024/04/10 02:14:57;;;;;;;6.40;1.85;;;8.60;99.90;;;;;;5379574;26;20010;-60
2024/04/10 02:17:23;;;;;;;13.02;2.13;;;8.50;99.90;;;;;;5386099;26;19996;-59
2024/04/10 02:19:50;;;;;;;16.35;1.88;;;8.50;99.90;;;;;;5381357;26;19996;-59
2024/04/10 02:22:16;;;;;;;19.35;2.75;;;8.40;99.90;;;;;;5384348;26;19999;-59
2024/04/10 02:24:41;;;;;;;11.30;3.63;;;8.30;99.90;;;;;;5380542;26;20347;-59
2024/04/10 02:27:07;;;;;;;13.15;1.80;;;8.30;99.90;;;;;;5371809;26;20010;-59
2024/04/10 02:29:33;;;;;;;12.15;1.60;;;8.20;99.90;;;;;;5365885;26;20008;-59
2024/04/10 02:31:58;;;;;;;22.90;3.50;;;8.10;99.90;;;;;;5375488;26;20033;-59
2024/04/10 02:34:24;;;;;;;10.90;2.25;;;8.00;99.90;;;;;;5380977;26;19997;-58
2024/04/10 02:36:49;;;;;;;15.80;2.20;;;7.90;99.90;;;;;;5364371;26;20358;-58
2024/04/10 02:39:15;;;;;;;15.48;1.83;;;7.80;99.90;;;;;;5362627;26;20065;-62
2024/04/10 02:41:40;;;;;;;15.82;1.92;;;7.70;99.90;;;;;;5374933;26;19992;-58
2024/04/10 02:44:06;;;;;;;16.05;2.50;;;7.60;99.90;;;;;;5378960;26;19996;-60
2024/04/10 02:46:31;;;;;;;15.40;2.70;;;7.60;99.90;;;;;;5385538;26;19997;-59
2024/04/10 02:48:57;;;;;;;17.73;2.40;;;7.50;99.90;;;;;;5373550;26;20004;-60
2024/04/10 02:51:23;;;;;;;18.17;2.05;;;7.50;99.90;;;;;;5380212;26;20043;-60
2024/04/10 02:53:48;;;;;;;13.02;1.90;;;7.40;99.90;;;;;;5362239;26;20070;-59
2024/04/10 02:56:14;;;;;;;20.95;3.60;;;7.40;99.90;;;;;;5396683;26;20012;-60
2024/04/10 02:58:40;;;;;;;17.30;2.40;;;7.40;99.90;;;;;;5383398;26;20000;-58
2024/04/10 03:01:05;;;;;;;13.88;2.25;;;7.30;99.90;;;;;;5383877;26;20070;-59
2024/04/10 03:03:31;;;;;;;13.48;3.42;;;7.30;99.90;;;;;;5375068;26;20343;-60
2024/04/10 03:06:07;;;;;;;12.98;2.50;;;7.20;99.90;;;;;;5383625;26;20074;-59
2024/04/10 03:08:34;;;;;;;10.57;2.05;;;7.20;99.90;;;;;;5374649;26;20012;-59
2024/04/10 03:11:00;;;;;;;9.80;1.80;;;7.10;99.90;;;;;;5373706;26;20078;-59
2024/04/10 03:13:26;;;;;;;7.45;1.50;;;7.10;99.90;;;;;;5384517;26;20414;-59
2024/04/10 03:15:52;;;;;;;10.60;2.20;;;7.00;99.90;;;;;;5383481;26;20008;-59
2024/04/10 03:18:18;;;;;;;13.05;1.83;;;7.00;99.90;;;;;;5383811;26;20569;-59
2024/04/10 03:20:44;;;;;;;16.85;1.73;;;6.90;99.90;;;;;;5380764;26;20081;-60
2024/04/10 03:23:09;;;;;;;10.93;1.85;;;6.90;99.90;;;;;;5384001;26;20000;-59
2024/04/10 03:25:35;;;;;;;16.23;3.00;;;6.90;99.90;;;;;;5376251;26;20005;-57
2024/04/10 03:28:01;;;;;;;17.60;3.90;;;6.90;99.90;;;;;;5383406;26;20353;-63
2024/04/10 03:30:27;;;;;;;16.85;2.97;;;6.80;99.90;;;;;;5373701;26;20001;-59
2024/04/10 03:32:53;;;;;;;13.75;1.83;;;6.80;99.90;;;;;;5381229;26;20539;-58
2024/04/10 03:35:19;;;;;;;12.95;2.50;;;6.80;99.90;;;;;;5370832;26;20077;-60
2024/04/10 03:37:45;;;;;;;11.48;1.77;;;6.80;99.90;;;;;;5369587;26;20008;-58
2024/04/10 03:40:11;;;;;;;9.50;2.65;;;6.70;99.90;;;;;;5376510;26;20346;-59
2024/04/10 03:42:37;;;;;;;12.98;3.10;;;6.60;99.90;;;;;;5376067;26;20012;-58
2024/04/10 03:45:03;;;;;;;12.13;2.90;;;6.60;99.90;;;;;;5361164;26;20102;-59
2024/04/10 03:47:29;;;;;;;8.10;2.17;;;6.50;99.90;;;;;;5383018;26;20039;-59
2024/04/10 03:49:54;;;;;;;14.70;2.60;;;6.50;99.90;;;;;;5376964;26;20011;-60
2024/04/10 03:52:20;;;;;;;15.45;2.72;;;6.40;99.90;;;;;;5383260;26;20011;-59
2024/04/10 03:54:45;;;;;;;17.55;2.17;;;6.40;99.90;;;;;;5372454;26;20078;-59
2024/04/10 03:57:11;;;;;;;13.00;4.10;;;6.40;99.90;;;;;;5378120;26;20016;-59
2024/04/10 03:59:36;;;;;;;7.00;2.08;;;6.30;99.90;;;;;;5376366;26;20354;-57
2024/04/10 04:02:02;;;;;;;15.48;2.22;;;6.30;99.90;;;;;;5383971;26;20436;-59
2024/04/10 04:04:28;;;;;;;15.63;2.17;;;6.40;99.90;;;;;;5369813;26;20016;-59
2024/04/10 04:06:54;;;;;;;24.65;3.40;;;6.40;99.90;;;;;;5382303;26;20392;-60
2024/04/10 04:09:20;;;;;;;16.60;3.88;;;6.50;99.90;;;;;;5375654;26;20036;-57
2024/04/10 04:11:46;;;;;;;17.00;2.10;;;6.60;99.90;;;;;;5375730;26;20001;-58
2024/04/10 04:14:11;;;;;;;7.00;2.88;;;6.70;99.90;;;;;;5388378;26;20081;-59
2024/04/10 04:16:37;;;;;;;7.57;2.15;;;6.80;99.90;;;;;;5373914;26;20015;-59
2024/04/10 04:19:02;;;;;;;19.95;3.22;;;6.90;99.90;;;;;;5372903;26;20018;-59
2024/04/10 04:21:28;;;;;;;18.95;2.42;;;7.00;99.90;;;;;;5388620;26;20040;-59
2024/04/10 04:23:54;;;;;;;15.52;2.10;;;7.10;99.90;;;;;;5382255;26;19996;-59
2024/04/10 04:26:20;;;;;;;19.00;3.08;;;7.20;99.90;;;;;;5370654;26;20011;-60
2024/04/10 04:28:46;;;;;;;15.30;2.72;;;7.20;99.90;;;;;;5376047;26;20054;-59
2024/04/10 04:31:14;;;;;;;12.57;2.45;;;7.30;99.90;;;;;;5376654;26;20019;-60
2024/04/10 04:33:41;;;;;;;12.70;2.63;;;7.30;99.90;;;;;;5383001;26;20000;-60
2024/04/10 04:36:07;;;;;;;12.25;2.45;;;7.40;99.90;;;;;;5365166;26;20074;-59
2024/04/10 04:38:33;;;;;;;9.48;2.60;;;7.40;99.90;;;;;;5380446;26;20081;-60
2024/04/10 04:40:59;;;;;;;11.55;2.92;;;7.40;99.90;;;;;;5384451;26;20336;-59
2024/04/10 04:43:25;;;;;;;5.95;1.65;;;7.50;99.90;;;;;;5387805;26;20004;-59
2024/04/10 04:45:51;;;;;;;15.32;2.58;;;7.50;99.90;;;;;;5374672;26;20074;-60
2024/04/10 04:48:16;;;;;;;11.15;2.10;;;7.50;99.90;;;;;;5377303;26;20455;-58
2024/04/10 04:50:42;;;;;;;15.73;2.60;;;7.50;99.90;;;;;;5372073;26;20023;-60
2024/04/10 04:53:12;;;;;;;10.32;1.98;;;7.50;99.90;;;;;;5378151;26;20015;-59
2024/04/10 04:55:39;;;;;;;8.50;1.90;;;7.50;99.90;;;;;;5353361;26;20004;-58
2024/04/10 04:58:05;;;;;;;6.93;1.60;;;7.40;99.90;;;;;;5373291;26;20013;-59
2024/04/10 05:00:34;;;;;;;13.77;2.53;;;7.40;99.90;;;;;;5387093;26;20003;-59
2024/04/10 05:03:01;;;;;;;10.80;2.13;;;7.30;99.90;;;;;;5384475;26;20000;-59
2024/04/10 05:05:26;;;;;;;20.33;1.88;;;7.30;99.90;;;;;;5383494;26;20020;-58
2024/04/10 05:07:52;;;;;;;13.75;2.88;;;7.30;99.90;;;;;;5369441;26;20005;-59
2024/04/10 05:10:19;;;;;;;15.60;2.13;;;7.30;99.90;;;;;;5373561;26;20004;-59
2024/04/10 05:12:44;;;;;;;19.25;3.05;;;7.40;99.90;;;;;;5376775;26;20000;-60
2024/04/10 05:15:12;;;;;;;23.67;3.05;;;7.40;99.90;;;;;;5383876;26;20557;-58
2024/04/10 05:17:42;;;;;;;17.35;2.55;;;7.50;99.90;;;;;;5382839;26;20004;-60
2024/04/10 05:20:12;;;;;;;13.32;2.47;;;7.50;99.90;;;;;;5367539;26;20045;-60
2024/04/10 05:22:42;;;;;;;15.45;2.35;;;7.50;99.90;;;;;;5376269;26;20015;-60
2024/04/10 05:25:09;;;;;;;17.17;2.75;;;7.60;99.90;;;;;;5382940;26;19996;-60
2024/04/10 05:27:38;;;;;;;13.90;1.95;;;7.70;99.90;;;;;;5385084;26;20350;-60
2024/04/10 05:30:07;;;;;;;11.48;1.73;;;7.80;99.90;;;;;;5383508;26;20008;-60
2024/04/10 05:32:37;;;;;;;4.85;2.00;;;7.80;99.90;;;;;;5365591;26;20015;-60
2024/04/10 05:35:06;;;;;;;9.55;3.08;;;7.80;99.90;;;;;;5373273;26;20473;-59
2024/04/10 05:37:32;;;;;;;17.85;3.33;;;7.90;99.90;;;;;;5371452;26;20699;-59
2024/04/10 05:40:06;;;;;;;16.10;3.13;;;7.90;99.90;;;;;;5369241;26;20016;-60
2024/04/10 05:42:32;;;;;;;;;;;8.00;99.90;;;;;;5371110;26;20004;-60
2024/04/10 05:44:58;;;;;;;7.80;1.75;;;8.10;99.90;;;;;;5337252;26;19933;-60
2024/04/10 05:47:23;;;;;;;10.75;2.22;;;8.10;99.90;;;;;;5382345;26;19996;-58
2024/04/10 05:49:49;;;;;;;12.52;2.22;;;8.20;99.90;;;;;;5380912;26;20082;-60
2024/04/10 05:52:15;;;;;;;13.43;3.03;;;8.30;99.90;;;;;;5382132;26;20000;-60
2024/04/10 05:54:40;;;;;;;18.63;2.15;;;8.30;99.90;;;;;;5377751;26;20008;-60
2024/04/10 05:57:07;;;;;;;9.38;2.28;;;8.30;99.90;;;;;;5377584;26;19997;-60
2024/04/10 05:59:32;;;;;;;12.38;2.03;;;8.40;99.90;;;;;;5362905;26;20033;-59
2024/04/10 06:01:58;;;;;;;13.65;2.30;;;8.30;99.90;;;;;;5391324;26;20529;-60
2024/04/10 06:04:23;;;;;;;13.85;2.33;;;8.30;99.90;;;;;;5376839;26;20461;-59
2024/04/10 06:06:49;;;;;;;22.00;2.58;;;8.30;99.90;;;;;;5366122;26;20504;-60
2024/04/10 06:09:14;;;;;;;11.05;2.25;;;8.40;99.90;;;;;;5393352;26;20435;-61
2024/04/10 06:11:40;;;;;;;9.63;2.60;;;8.60;99.90;;;;;;5378059;26;20015;-60
2024/04/10 06:14:05;;;;;;;13.57;1.98;;;8.70;99.90;;;;;;5381576;26;20006;-60
2024/04/10 06:16:31;;;;;;;16.17;2.50;;;8.80;99.90;;;;;;5388654;26;20007;-59
2024/04/10 06:18:56;;;;;;;15.10;3.20;;;8.90;99.90;;;;;;5380905;26;19996;-61
2024/04/10 06:21:22;;;;;;;17.20;2.45;;;9.00;99.90;;;;;;5375369;26;20008;-61
2024/04/10 06:23:48;;;;;;;17.50;3.22;;;9.20;99.90;;;;;;5370246;26;19995;-62
2024/04/10 06:26:13;;;;;;;17.40;2.20;;;9.40;99.90;;;;;;5370036;26;19996;-60
2024/04/10 06:28:39;;;;;;;15.55;2.72;;;9.60;99.90;;;;;;5365886;26;20047;-59
2024/04/10 06:31:06;;;;;;;17.27;3.17;;;9.80;99.90;;;;;;5382817;26;20078;-58
2024/04/10 06:33:32;;;;;;;10.98;2.75;;;10.00;99.90;;;;;;5373539;26;19997;-59
2024/04/10 06:35:58;;;;;;;14.18;3.15;;;10.30;99.90;;;;;;5386602;26;20006;-57
2024/04/10 06:38:24;;;;;;;12.05;2.70;;;10.60;99.90;;;;;;5381583;26;20482;-58
2024/04/10 06:40:57;;;;;;;9.77;2.42;;;10.90;99.90;;;;;;5390455;26;19996;-59
2024/04/10 06:43:23;;;;;;;10.65;2.88;;;11.60;99.90;;;;;;5385706;26;20048;-59
2024/04/10 06:46:03;;;;;;;16.15;2.65;;;11.70;99.90;;;;;;5385828;26;20004;-59
2024/04/10 06:48:29;;;;;;;12.35;2.42;;;11.50;99.90;;;;;;5395323;26;20012;-59
2024/04/10 06:50:58;;;;;;;11.70;2.55;;;11.40;99.90;;;;;;5389581;26;20025;-59
2024/04/10 06:53:23;;;;;;;12.25;2.45;;;11.30;99.90;;;;;;5381795;26;20004;-59
2024/04/10 06:55:58;;;;;;;21.42;3.72;;;11.30;99.90;;;;;;5379916;26;20424;-60
2024/04/10 06:58:25;;;;;;;15.02;2.53;;;11.30;99.90;;;;;;5375955;26;20350;-59
2024/04/10 07:00:58;;;;;;;12.27;2.95;;;11.50;99.90;;;;;;5373233;26;20052;-59
2024/04/10 07:03:28;;;;;;;20.35;3.25;;;11.70;99.90;;;;;;5391139;26;20465;-60
2024/04/10 07:06:15;;;;;;;9.63;1.90;;;12.00;99.90;;;;;;5381971;26;20040;-60
2024/04/10 07:08:42;;;;;;;14.88;2.70;;;12.00;99.90;;;;;;5381350;26;20016;-60
2024/04/10 07:11:11;;;;;;;16.23;2.92;;;11.80;99.90;;;;;;5386399;26;19999;-60
2024/04/10 07:13:38;;;;;;;18.33;3.03;;;11.60;99.90;;;;;;5384371;26;20015;-60
2024/04/10 07:16:04;;;;;;;13.48;3.53;;;11.40;99.90;;;;;;5386195;26;20003;-59
2024/04/10 07:18:31;;;;;;;16.38;3.00;;;11.20;99.90;;;;;;5380137;26;20009;-61
2024/04/10 07:21:08;;;;;;;13.93;3.67;;;11.20;99.90;;;;;;5382814;26;20004;-60
2024/04/10 07:23:37;;;;;;;20.00;3.20;;;11.10;99.90;;;;;;5379300;26;20103;-60
2024/04/10 07:26:12;;;;;;;16.13;3.22;;;11.10;99.90;;;;;;5383038;26;20346;-58
2024/04/10 07:28:45;;;;;;;13.90;3.20;;;11.00;99.90;;;;;;5381005;26;20011;-60
2024/04/10 07:31:13;;;;;;;12.88;2.97;;;11.00;99.90;;;;;;5380817;26;20085;-60
2024/04/10 07:33:39;;;;;;;18.02;3.42;;;10.90;99.90;;;;;;5365684;26;20000;-59
2024/04/10 07:36:14;;;;;;;12.93;3.53;;;10.80;99.90;;;;;;5373118;26;20000;-60
2024/04/10 07:38:41;;;;;;;11.13;3.25;;;10.80;99.90;;;;;;5379989;26;20028;-60
2024/04/10 07:41:08;;;;;;;18.17;3.13;;;11.00;99.90;;;;;;5382166;26;20018;-60
2024/04/10 07:43:34;;;;;;;8.43;2.40;;;11.20;99.90;;;;;;5379707;26;20032;-59
2024/04/10 07:46:11;;;;;;;16.58;3.63;;;11.50;99.90;;;;;;5387424;26;20016;-60
2024/04/10 07:48:38;;;;;;;11.07;2.90;;;11.60;99.90;;;;;;5379984;26;20015;-58
2024/04/10 07:51:06;;;;;;;11.48;2.97;;;11.80;99.90;;;;;;5366767;26;20008;-59
2024/04/10 07:53:35;;;;;;;14.30;3.55;;;12.00;99.90;;;;;;5371684;26;20120;-60
2024/04/10 07:56:01;;;;;;;17.88;3.40;;;12.40;99.90;;;;;;5372979;26;20019;-60
2024/04/10 07:58:28;;;;;;;8.02;3.22;;;12.70;99.90;;;;;;5384016;26;20015;-59
2024/04/10 08:00:56;;;;;;;10.90;2.88;;;12.90;99.90;;;;;;5384933;26;20008;-60
2024/04/10 08:03:23;;;;;;;10.82;3.58;;;13.00;99.90;;;;;;5381149;26;20004;-53
2024/04/10 08:05:50;;;;;;;16.27;3.20;;;13.00;99.90;;;;;;5374857;26;20000;-55
2024/04/10 08:08:15;;;;;;;12.73;2.33;;;13.10;99.90;;;;;;5377131;26;20024;-52
2024/04/10 08:10:41;;;;;;;12.63;3.00;;;13.00;99.90;;;;;;5377551;26;20108;-56
2024/04/10 08:13:07;;;;;;;13.88;3.50;;;13.30;99.90;;;;;;5378052;26;20005;-51
2024/04/10 08:15:33;;;;;;;11.40;3.38;;;13.10;99.90;;;;;;5374421;26;20330;-51
2024/04/10 08:17:58;;;;;;;11.27;2.50;;;12.90;99.90;;;;;;5383529;26;20469;-52
2024/04/10 08:20:24;;;;;;;13.45;3.28;;;13.00;99.90;;;;;;5375711;26;20004;-55
2024/04/10 08:22:49;;;;;;;9.85;2.80;;;13.10;99.90;;;;;;5377015;26;20009;-53
2024/04/10 08:25:15;;;;;;;17.13;3.55;;;13.20;99.90;;;;;;5378590;26;20004;-54
2024/04/10 08:27:41;;;;;;;17.08;3.95;;;13.20;99.90;;;;;;5379411;26;20004;-53
2024/04/10 08:30:07;;;;;;;12.80;3.83;;;13.40;99.90;;;;;;5379698;26;20011;-54
2024/04/10 08:32:34;;;;;;;12.45;2.78;;;13.20;99.90;;;;;;5379429;26;20003;-55
2024/04/10 08:35:00;;;;;;;11.30;2.85;;;13.30;99.90;;;;;;5379507;26;20040;-55
2024/04/10 08:37:25;;;;;;;9.00;2.55;;;13.20;99.90;;;;;;5378253;26;20000;-51
2024/04/10 08:39:51;;;;;;;9.82;2.58;;;13.20;99.90;;;;;;5382783;26;20077;-54
2024/04/10 08:42:19;;;;;;;15.25;3.25;;;13.20;99.90;;;;;;5379617;26;20005;-53
2024/04/10 08:44:45;;;;;;;14.30;3.03;;;13.20;99.90;;;;;;5377778;26;20023;-51
2024/04/10 08:47:12;;;;;;;11.77;2.80;;;12.90;99.90;;;;;;5378727;26;20022;-54
2024/04/10 08:49:39;;;;;;;15.80;3.22;;;12.70;99.90;;;;;;5378001;26;19997;-54
2024/04/10 08:52:08;;;;;;;9.63;2.53;;;12.80;99.90;;;;;;5376702;26;20008;-53
2024/04/10 08:54:35;;;;;;;10.80;2.85;;;12.90;99.90;;;;;;5378597;26;20012;-54
2024/04/10 08:57:02;;;;;;;16.15;2.90;;;12.80;99.90;;;;;;5356789;26;20356;-57
2024/04/10 08:59:31;;;;;;;11.27;3.50;;;12.70;99.90;;;;;;5375565;26;20353;-54
2024/04/10 09:02:01;;;;;;;17.52;3.55;;;13.00;99.90;;;;;;5378033;26;20012;-53
2024/04/10 09:04:27;;;;;;;8.50;2.85;;;13.40;99.90;;;;;;5377095;26;20428;-55
2024/04/10 09:07:03;;;;;;;11.38;2.30;;;13.50;99.90;;;;;;5376240;26;20000;-55
2024/04/10 09:09:29;;;;;;;7.30;2.67;;;13.60;99.90;;;;;;5378577;26;20023;-53
2024/04/10 09:11:54;;;;;;;9.00;3.00;;;13.60;99.90;;;;;;5378682;26;20442;-51
2024/04/10 09:14:20;;;;;;;13.15;3.05;;;13.60;99.90;;;;;;5378294;26;20811;-56
2024/04/10 09:16:45;;;;;;;8.32;2.67;;;14.00;99.90;;;;;;5374831;26;20094;-52
2024/04/10 09:19:16;;;;;;;10.55;3.40;;;14.40;99.90;;;;;;5375673;26;20012;-52
2024/04/10 09:21:54;;;;;;;8.82;3.60;;;14.80;99.90;;;;;;5359608;26;20001;-53
2024/04/10 09:24:24;;;;;;;20.10;4.60;;;14.90;99.90;;;;;;5370087;26;20000;-55
2024/04/10 09:26:50;;;;;;;15.63;2.83;;;14.90;99.90;;;;;;5371236;26;20007;-55
2024/04/10 09:29:19;;;;;;;10.38;2.88;;;14.60;99.90;;;;;;5374825;26;20000;-56
2024/04/10 09:31:47;;;;;;;10.38;3.08;;;14.50;99.90;;;;;;5377314;26;20000;-55
2024/04/10 09:34:21;;;;;;;9.02;2.78;;;14.40;99.90;;;;;;5377649;26;20018;-55
2024/04/10 09:36:47;;;;;;;7.53;3.10;;;14.10;99.90;;;;;;5364903;26;21018;-54
2024/04/10 09:39:13;;;;;;;11.25;2.70;;;14.00;99.90;;;;;;5350869;26;20004;-53
2024/04/10 09:41:44;;;;;;;15.10;3.75;;;14.10;99.90;;;;;;5370695;26;21517;-56
2024/04/10 09:44:10;;;;;;;13.05;4.07;;;14.20;99.90;;;;;;5376595;26;20462;-56
2024/04/10 09:46:37;;;;;;;13.98;6.10;;;14.60;99.90;;;;;;5372138;26;20003;-54
2024/04/10 09:49:08;;;;;;;12.27;3.58;;;14.50;99.90;;;;;;5374405;26;20004;-52
2024/04/10 09:51:37;;;;;;;14.77;3.08;;;14.40;99.90;;;;;;5373884;26;20054;-55
2024/04/10 09:54:03;;;;;;;9.98;2.63;;;14.20;99.90;;;;;;5373470;26;20446;-54
2024/04/10 09:56:28;;;;;;;9.60;3.08;;;14.00;99.90;;;;;;5377208;26;20085;-55
2024/04/10 09:58:54;;;;;;;9.75;2.92;;;13.60;99.90;;;;;;5356239;26;20351;-54
2024/04/10 10:01:23;;;;;;;8.10;3.30;;;13.40;99.90;;;;;;5353252;26;20008;-56
2024/04/10 10:03:56;;;;;;;19.50;3.92;;;13.40;99.90;;;;;;5377989;26;20004;-52
2024/04/10 10:06:28;;;;;;;9.45;2.88;;;13.30;99.90;;;;;;5379980;26;20028;-54
2024/04/10 10:08:54;;;;;;;8.68;3.30;;;13.40;99.90;;;;;;5358788;26;20001;-56
2024/04/10 10:11:20;;;;;;;22.38;2.70;;;13.50;99.90;;;;;;5376385;26;20005;-56
2024/04/10 10:14:00;;;;;;;11.30;2.83;;;13.70;99.90;;;;;;5381116;26;20016;-52
2024/04/10 10:16:27;;;;;;;8.82;2.42;;;13.60;99.90;;;;;;5380320;26;20000;-55
2024/04/10 10:18:59;;;;;;;4.03;1.42;;;13.60;99.90;;;;;;5376882;26;20001;-55
2024/04/10 10:21:25;;;;;;;12.73;3.03;;;13.80;99.90;;;;;;5379171;26;20078;-56
2024/04/10 10:24:02;;;;;;;10.50;2.10;;;14.00;99.90;;;;;;5374718;26;20341;-57
2024/04/10 10:26:28;;;;;;;8.30;2.60;;;14.00;99.90;;;;;;5363718;26;20001;-56
2024/04/10 10:29:06;;;;;;;12.05;2.45;;;14.20;99.90;;;;;;5348382;26;20000;-57
2024/04/10 10:31:33;;;;;;;8.50;1.85;;;14.30;99.90;;;;;;5371235;26;20005;-55
2024/04/10 10:34:21;;;;;;;6.47;2.72;;;14.50;99.90;;;;;;5356067;26;20019;-56
2024/04/10 10:36:48;;;;;;;12.30;2.63;;;14.90;99.90;;;;;;5371634;26;21389;-54
2024/04/10 10:39:18;;;;;;;11.23;2.20;;;15.30;99.90;;;;;;5372242;26;20472;-57
2024/04/10 10:41:44;;;;;;;10.35;2.70;;;15.60;99.40;;;;;;5372144;26;20019;-54
2024/04/10 10:44:09;;;;;;;9.35;2.47;;;15.60;99.10;;;;;;5374872;26;20102;-54
2024/04/10 10:46:35;;;;;;;6.80;2.10;;;15.40;98.60;;;;;;5372957;26;20353;-56
2024/04/10 10:49:04;;;;;;;6.63;2.20;;;14.90;98.40;;;;;;5372190;26;20109;-53
2024/04/10 10:51:31;;;;;;;13.45;2.20;;;14.70;99.90;;;;;;5372450;26;20043;-55
2024/04/10 10:53:57;;;;;;;9.25;1.67;;;14.30;99.70;;;;;;5372946;26;20424;-51
2024/04/10 10:56:26;;;;;;;8.00;1.88;;;14.10;99.40;;;;;;5371736;26;20038;-54
2024/04/10 10:58:53;;;;;;;4.47;1.55;;;13.90;99.90;;;;;;5373103;26;20012;-53
2024/04/10 11:01:19;;;;;;;6.90;1.90;;;13.80;99.90;;;;;;5372126;26;20361;-53
2024/04/10 11:03:44;;;;;;;5.95;1.58;;;13.80;99.90;;;;;;5370560;26;20015;-53
2024/04/10 11:06:11;;;;;;;13.70;2.38;;;13.80;99.90;;;;;;5375431;26;19996;-55
2024/04/10 11:08:37;;;;;;;6.07;2.03;;;14.00;99.90;;;;;;5374389;26;20447;-54
2024/04/10 11:11:04;;;;;;;11.32;2.08;;;14.20;99.90;;;;;;5376300;26;19996;-55
2024/04/10 11:13:29;;;;;;;6.32;2.50;;;14.50;99.90;;;;;;5366890;26;20000;-57
2024/04/10 11:15:57;;;;;;;8.68;2.50;;;15.20;99.30;;;;;;5372616;26;20004;-57
2024/04/10 11:18:24;;;;;;;14.07;2.78;;;15.70;98.20;;;;;;5342264;26;20009;-56
2024/04/10 11:20:51;;;;;;;11.35;2.50;;;16.50;97.20;;;;;;5371943;26;21524;-54
2024/04/10 11:23:17;;;;;;;8.18;2.25;;;16.50;97.00;;;;;;5373013;26;20008;-56
2024/04/10 11:25:44;;;;;;;8.90;1.80;;;17.00;96.60;;;;;;5370920;26;20008;-54
2024/04/10 11:28:10;;;;;;;7.78;1.92;;;17.10;96.70;;;;;;5369912;26;20450;-54
2024/04/10 11:30:37;;;;;;;7.32;1.77;;;16.50;95.60;;;;;;5370536;26;20014;-54
2024/04/10 11:33:07;;;;;;;11.18;2.38;;;16.20;96.30;;;;;;5358824;26;20008;-52
2024/04/10 11:35:37;;;;;;;5.30;2.78;;;16.10;96.10;;;;;;5339078;26;20015;-54
2024/04/10 11:38:02;;;;;;;13.02;2.00;;;15.70;96.50;;;;;;5374336;26;20442;-55
2024/04/10 11:40:28;;;;;;;6.57;2.05;;;15.70;97.00;;;;;;5370872;26;20077;-56
2024/04/10 11:42:53;;;;;;;12.57;2.22;;;15.60;97.30;;;;;;5371881;26;20005;-57
2024/04/10 11:45:19;;;;;;;12.20;1.92;;;15.60;97.70;;;;;;5342687;26;20004;-56
2024/04/10 11:47:45;;;;;;;9.60;2.63;;;15.70;97.80;;;;;;5370923;26;20012;-52
2024/04/10 11:50:12;;;;;;;7.20;3.15;;;15.60;96.50;;;;;;5373165;26;20786;-56
2024/04/10 11:52:41;;;;;;;8.02;2.30;;;15.60;97.40;;;;;;5373076;26;20561;-56
2024/04/10 11:55:07;;;;;;;6.88;2.05;;;15.60;96.60;;;;;;5372820;26;20059;-55
2024/04/10 11:57:34;;;;;;;6.97;1.80;;;15.80;96.00;;;;;;5372769;26;20106;-55
2024/04/10 12:00:00;;;;;;;5.82;1.60;;;15.90;95.60;;;;;;5372545;26;20011;-54
2024/04/10 12:02:25;;;;;;;6.65;1.27;;;15.80;95.10;;;;;;5374700;26;20004;-57
2024/04/10 12:04:52;;;;;;;3.97;1.67;;;16.00;93.70;;;;;;5371230;26;20012;-55
2024/04/10 12:07:18;;;;;;;7.47;2.58;;;16.00;94.50;;;;;;5371142;26;20084;-55
2024/04/10 12:09:45;;;;;;;8.07;2.15;;;16.10;94.80;;;;;;5371628;26;20004;-55
2024/04/10 12:12:12;;;;;;;6.93;1.88;;;16.20;95.50;;;;;;5371301;26;20020;-56
2024/04/10 12:14:41;;;;;;;6.97;2.88;;;16.20;94.90;;;;;;5371411;26;20114;-53
2024/04/10 12:17:06;;;;;;;8.52;1.60;;;16.10;95.20;;;;;;5370978;26;20008;-56
2024/04/10 12:19:32;;;;;;;6.03;2.53;;;15.90;93.20;;;;;;5370463;26;20008;-54
2024/04/10 12:21:57;;;;;;;7.10;1.98;;;15.80;93.70;;;;;;5370209;26;20008;-58
2024/04/10 12:24:23;;;;;;;10.10;1.88;;;15.80;93.40;;;;;;5372226;26;20023;-54
2024/04/10 12:26:49;;;;;;;7.78;1.45;;;15.70;93.20;;;;;;5373783;26;20004;-56
2024/04/10 12:29:15;;;;;;;6.45;1.48;;;15.70;94.00;;;;;;5372298;26;20000;-57
2024/04/10 12:31:40;;;;;;;6.10;1.58;;;15.90;93.60;;;;;;5368908;26;20010;-57
2024/04/10 12:34:07;;;;;;;3.17;1.30;;;15.80;92.80;;;;;;5350221;26;20085;-57
2024/04/10 12:39:18;;;;;;;6.97;1.67;;;16.20;93.20;;;;;;5372852;26;20022;-56
2024/04/10 12:41:51;;;;;;;4.10;1.52;;;16.30;93.00;;;;;;5373655;26;20347;-57
2024/04/10 12:44:21;;;;;;;6.68;1.70;;;16.40;92.20;;;;;;5373473;26;20019;-56
2024/04/10 12:46:53;;;;;;;9.50;2.20;;;16.70;93.10;;;;;;5373921;26;20016;-54